Thunderstorms From: 25-05-2018 23:09 Until: 26-05-2018 15:00 warning for: Thunderstorms Level: Yellow info button

Although rather usual in this region, locally or potentially dangerous phenomena are expected. (such as local winds, summer thunderstorms, rising streams or high waves) Be aware and pay attention to the latest weather updates, especially if you carry out activities exposed to weather or close to a stream or shoreline. 


Meteo18 Weather Cam more information Meteo18 Weather Cam


warning for Thunderstorms more information blitzortung!


Rain radar more information rain snow radar


Visit our other weather sites:

Template documentation
and downloads

And another site



Weather Underground History page Text

Daily Summary for September 28, 2017 Units:  Metric    English   Both
« Previous Day
Next Day »
Daily Weekly Monthly Yearly Custom
  High: Low: Average:
Temperature: -17.8 °C -11.2 °C -8.4 °C
Dew Point: -17.8 °C -11.6 °C -10.1 °C
Humidity: Humidity % 60 % 84 %
Wind Speed: 0 km/h 0 km/h 2.9 km/h
Wind Gust: 0 km/h - -
Wind:- - SW
Pressure: 0 hPa 34601.5 hPa -
Precipitation: 0 mm    
Historical Graphs
 
 
Tabular Data for September 28, 2017
Time Temperature Dew Point Pressure Wind Wind Speed Wind Gust Humidity Rainfall Rate (Hourly)
-17.8 °C -17.8 °C 0 hPa Calm     Humidity % 0 mm
00:02 -9.6 °C -10.4 °C 34601.5 hPa Calm   2.6 km/h 91 % 0 mm
00:12 -9.6 °C -10.2 °C 34601.5 hPa Calm   2.6 km/h 93 % 0 mm
00:17 -9.6 °C -10.2 °C 34601.5 hPa Calm   2.6 km/h 93 % 0 mm
00:22 -9.5 °C -10.1 °C 34601.5 hPa Calm     93 % 0 mm
00:27 -9.4 °C -10 °C 34601.5 hPa SE 2.6 km/h   93 % 0 mm
00:32 -9.3 °C -10 °C 34601.5 hPa Calm   5.1 km/h 92 % 0 mm
00:42 -9.4 °C -10.2 °C 34601.5 hPa Calm   5.1 km/h 91 % 0 mm
00:52 -9.4 °C -10.3 °C 34611.7 hPa Calm     91 % 0 mm
00:57 -9.6 °C -10.4 °C 34601.5 hPa SE 2.6 km/h 2.6 km/h 91 % 0 mm
01:02 -9.6 °C -10.3 °C 34611.7 hPa SE 2.6 km/h 2.6 km/h 92 % 0 mm
01:12 -9.6 °C -10.3 °C 34611.7 hPa SE 2.6 km/h 2.6 km/h 92 % 0 mm
01:17 -9.6 °C -10.3 °C 34601.5 hPa SE 2.6 km/h 2.6 km/h 92 % 0 mm
01:22 -9.6 °C -10.4 °C 34601.5 hPa Calm   2.6 km/h 91 % 0 mm
01:32 -9.8 °C -10.5 °C 34611.7 hPa WNW 2.6 km/h 5.1 km/h 92 % 0 mm
01:42 -9.8 °C -10.4 °C 34601.5 hPa Calm   5.1 km/h 94 % 0 mm
01:47 -9.9 °C -10.5 °C 34611.7 hPa WNW 2.6 km/h 5.1 km/h 93 % 0 mm
01:52 -10 °C -10.6 °C 34611.7 hPa WNW 2.6 km/h 5.1 km/h 94 % 0 mm
01:57 -10.1 °C -10.6 °C 34611.7 hPa Calm   5.1 km/h 94 % 0 mm
02:02 -10.1 °C -10.6 °C 34611.7 hPa Calm   5.1 km/h 94 % 0 mm
02:12 -9.9 °C -10.3 °C 34611.7 hPa Calm   5.1 km/h 95 % 0 mm
02:17 -10.1 °C -10.6 °C 34611.7 hPa Calm   2.6 km/h 94 % 0 mm
02:22 -10.3 °C -10.8 °C 34611.7 hPa Calm   2.6 km/h 94 % 0 mm
02:27 -10.3 °C -10.8 °C 34611.7 hPa Calm   2.6 km/h 95 % 0 mm
02:32 -10.3 °C -10.7 °C 34611.7 hPa Calm   2.6 km/h 95 % 0 mm
02:37 -10.2 °C -10.5 °C 34611.7 hPa Calm   2.6 km/h 96 % 0 mm
02:42 -10.2 °C -10.6 °C 34611.7 hPa Calm   2.6 km/h 95 % 0 mm
02:47 -10.3 °C -10.8 °C 34611.7 hPa Calm     94 % 0 mm
02:52 -10.4 °C -10.9 °C 34611.7 hPa Calm     95 % 0 mm
02:57 -10.4 °C -10.9 °C 34625.2 hPa Calm     95 % 0 mm
03:02 -10.6 °C -11.1 °C 34611.7 hPa Calm     95 % 0 mm
03:12 -10.6 °C -10.9 °C 34625.2 hPa Calm   2.6 km/h 96 % 0 mm
03:17 -10.6 °C -10.9 °C 34611.7 hPa Calm     96 % 0 mm
03:22 -10.6 °C -10.9 °C 34611.7 hPa Calm     96 % 0 mm
03:27 -10.6 °C -10.9 °C 34611.7 hPa Calm     96 % 0 mm
03:32 -10.7 °C -11.1 °C 34625.2 hPa Calm     95 % 0 mm
03:42 -10.7 °C -11.1 °C 34611.7 hPa Calm     96 % 0 mm
03:47 -10.7 °C -11 °C 34611.7 hPa Calm     96 % 0 mm
03:52 -10.7 °C -11.1 °C 34611.7 hPa Calm     96 % 0 mm
03:57 -10.9 °C -11.3 °C 34611.7 hPa Calm   2.6 km/h 95 % 0 mm
04:02 -10.9 °C -11.3 °C 34611.7 hPa Calm   2.6 km/h 96 % 0 mm
04:12 -10.8 °C -11.1 °C 34625.2 hPa Calm   2.6 km/h 97 % 0 mm
04:17 -10.9 °C -11.3 °C 34625.2 hPa Calm     96 % 0 mm
04:22 -11 °C -11.3 °C 34625.2 hPa Calm     96 % 0 mm
04:27 -10.9 °C -11.3 °C 34625.2 hPa Calm     96 % 0 mm
04:32 -10.8 °C -11.1 °C 34625.2 hPa Calm     97 % 0 mm
04:37 -10.7 °C -11 °C 34635.4 hPa Calm     97 % 0 mm
04:42 -10.7 °C -11 °C 34635.4 hPa Calm     97 % 0 mm
04:47 -10.6 °C -10.9 °C 34635.4 hPa Calm     97 % 0 mm
04:52 -10.6 °C -10.8 °C 34635.4 hPa Calm     97 % 0 mm
05:02 -10.6 °C -10.8 °C 34635.4 hPa Calm     97 % 0 mm
05:12 -10.6 °C -10.9 °C 34635.4 hPa Calm     96 % 0 mm
05:17 -10.7 °C -11 °C 34635.4 hPa Calm     96 % 0 mm
05:22 -10.7 °C -11.1 °C 34635.4 hPa Calm     96 % 0 mm
05:27 -10.9 °C -11.2 °C 34635.4 hPa Calm     96 % 0 mm
05:32 -11.1 °C -11.5 °C 34635.4 hPa Calm     95 % 0 mm
05:42 -11.2 °C -11.6 °C 34635.4 hPa Calm     96 % 0 mm
05:47 -11.2 °C -11.4 °C 34635.4 hPa Calm     97 % 0 mm
05:52 -11 °C -11.3 °C 34635.4 hPa Calm     97 % 0 mm
05:57 -10.9 °C -11.2 °C 34635.4 hPa Calm     97 % 0 mm
06:02 -10.9 °C -11.2 °C 34635.4 hPa Calm     97 % 0 mm
06:12 -10.8 °C -11.1 °C 34645.6 hPa Calm     97 % 0 mm
06:17 -10.8 °C -11.1 °C 34645.6 hPa Calm     97 % 0 mm
06:22 -10.8 °C -11.1 °C 34645.6 hPa Calm     97 % 0 mm
06:32 -10.8 °C -11.1 °C 34645.6 hPa Calm     97 % 0 mm
06:37 -10.8 °C -11.1 °C 34645.6 hPa Calm     97 % 0 mm
06:42 -10.8 °C -11.1 °C 34645.6 hPa Calm     97 % 0 mm
06:52 -10.9 °C -11.2 °C 34645.6 hPa Calm     97 % 0 mm
06:57 -10.9 °C -11.2 °C 34645.6 hPa Calm     97 % 0 mm
07:02 -10.9 °C -11.2 °C 34645.6 hPa Calm     97 % 0 mm
07:12 -10.9 °C -11.2 °C 34645.6 hPa Calm     97 % 0 mm
07:17 -10.9 °C -11.2 °C 34645.6 hPa Calm     97 % 0 mm
07:22 -10.9 °C -11.2 °C 34645.6 hPa Calm     97 % 0 mm
07:32 -10.9 °C -11.2 °C 34645.6 hPa Calm     97 % 0 mm
07:42 -10.9 °C -11.2 °C 34659.1 hPa NNE 5.1 km/h   97 % 0 mm
07:47 -10.9 °C -11.2 °C 34659.1 hPa NNE 2.6 km/h 5.1 km/h 97 % 0 mm
07:52 -10.9 °C -11.2 °C 34659.1 hPa Calm   5.1 km/h 97 % 0 mm
08:02 -10.9 °C -11.2 °C 34659.1 hPa Calm   5.1 km/h 97 % 0 mm
08:12 -10.9 °C -11.2 °C 34659.1 hPa Calm   2.6 km/h 97 % 0 mm
08:17 -10.9 °C -11.2 °C 34659.1 hPa Calm   2.6 km/h 97 % 0 mm
08:22 -10.9 °C -11.2 °C 34659.1 hPa Calm   2.6 km/h 97 % 0 mm
08:32 -10.9 °C -11.2 °C 34669.3 hPa Calm   2.6 km/h 97 % 0 mm
08:37 -10.9 °C -11.2 °C 34669.3 hPa Calm     97 % 0 mm
08:42 -10.8 °C -11.1 °C 34669.3 hPa Calm     97 % 0 mm
08:47 -10.8 °C -11.1 °C 34669.3 hPa Calm     97 % 0 mm
08:52 -10.7 °C -11 °C 34669.3 hPa Calm     97 % 0 mm
09:02 -10.7 °C -11 °C 34669.3 hPa Calm   2.6 km/h 97 % 0 mm
09:12 -10.7 °C -10.9 °C 34669.3 hPa Calm   2.6 km/h 97 % 0 mm
09:17 -10.6 °C -10.9 °C 34682.8 hPa Calm   2.6 km/h 97 % 0 mm
09:22 -10.5 °C -10.8 °C 34682.8 hPa Calm   2.6 km/h 97 % 0 mm
09:32 -10.4 °C -10.7 °C 34682.8 hPa Calm   2.6 km/h 97 % 0 mm
09:37 -10.4 °C -10.7 °C 34682.8 hPa Calm     97 % 0 mm
09:42 -10.2 °C -10.5 °C 34682.8 hPa Calm     97 % 0 mm
09:52 -10.1 °C -10.3 °C 34682.8 hPa Calm   2.6 km/h 97 % 0 mm
10:02 -9.8 °C -10.1 °C 34682.8 hPa SW 2.6 km/h 2.6 km/h 97 % 0 mm
10:07 -9.7 °C -9.9 °C 34682.8 hPa Calm   5.1 km/h 97 % 0 mm
10:12 -9.7 °C -10 °C 34693 hPa SW 2.6 km/h 5.1 km/h 96 % 0 mm
10:17 -9.6 °C -9.9 °C 34682.8 hPa Calm   10.3 km/h 96 % 0 mm
10:22 -9.5 °C -9.9 °C 34682.8 hPa SW 2.6 km/h 10.3 km/h 95 % 0 mm
10:27 -9.3 °C -9.8 °C 34693 hPa SW 2.6 km/h 10.3 km/h 95 % 0 mm
10:32 -9.1 °C -9.7 °C 34682.8 hPa SSW 5.1 km/h 10.3 km/h 94 % 0 mm
10:42 -8.9 °C -9.8 °C 34693 hPa SSW 2.6 km/h 7.7 km/h 90 % 0 mm
10:52 -8.7 °C -9.8 °C 34682.8 hPa SSW 2.6 km/h 10.3 km/h 88 % 0 mm
11:02 -8.4 °C -9.7 °C 34682.8 hPa SW 2.6 km/h 10.3 km/h 87 % 0 mm
11:12 -8.3 °C -9.7 °C 34693 hPa SSW 7.7 km/h 10.3 km/h 85 % 0 mm
11:17 -8.2 °C -9.7 °C 34693 hPa SE 2.6 km/h 10.3 km/h 84 % 0 mm
11:22 -8.1 °C -9.7 °C 34693 hPa SW 12.9 km/h 12.9 km/h 83 % 0 mm
11:32 -7.7 °C -9.4 °C 34682.8 hPa SSW 2.6 km/h 15.6 km/h 82 % 0 mm
11:42 -7.6 °C -9.9 °C 34682.8 hPa WSW 15.6 km/h 15.6 km/h 76 % 0 mm
11:47 -7.6 °C -9.9 °C 34682.8 hPa South 10.3 km/h 20.8 km/h 76 % 0 mm
11:52 -7.4 °C -9.7 °C 34682.8 hPa SSW 10.3 km/h 20.8 km/h 77 % 0 mm
11:57 -7.4 °C -9.8 °C 34682.8 hPa SSW 7.7 km/h 20.8 km/h 76 % 0 mm
12:02 -7.3 °C -9.7 °C 34682.8 hPa SW 18.2 km/h 20.8 km/h 76 % 0 mm
12:12 -7.1 °C -9.7 °C 34682.8 hPa SW 12.9 km/h 23.3 km/h 74 % 0 mm
12:17 -7.2 °C -9.9 °C 34682.8 hPa SW 18.2 km/h 23.3 km/h 73 % 0 mm
12:22 -7.1 °C -9.5 °C 34682.8 hPa WSW 7.7 km/h 23.3 km/h 76 % 0 mm
12:32 -6.9 °C -9.6 °C 34682.8 hPa WSW 12.9 km/h 20.8 km/h 74 % 0 mm
12:42 -6.8 °C -9.6 °C 34682.8 hPa West 7.7 km/h 20.8 km/h 73 % 0 mm
12:52 -6.7 °C -9.3 °C 34682.8 hPa WSW 2.6 km/h 20.8 km/h 74 % 0 mm
12:57 -6.6 °C -9.5 °C 34682.8 hPa Calm   15.6 km/h 72 % 0 mm
13:02 -6.5 °C -9.4 °C 34682.8 hPa WNW 7.7 km/h 15.6 km/h 72 % 0 mm
13:07 -6.3 °C -9.2 °C 34682.8 hPa SSW 10.3 km/h 15.6 km/h 72 % 0 mm
13:12 -6.3 °C -9.3 °C 34682.8 hPa SW 5.1 km/h 20.8 km/h 71 % 0 mm
13:17 -6.2 °C -9.4 °C 34682.8 hPa SW 12.9 km/h 20.8 km/h 69 % 0 mm
13:22 -6.2 °C -9.6 °C 34682.8 hPa SW 10.3 km/h 23.3 km/h 68 % 0 mm
13:32 -6.2 °C -9.3 °C 34669.3 hPa SSW 2.6 km/h 23.3 km/h 70 % 0 mm
13:37 -6.2 °C -9.6 °C 34669.3 hPa SW 12.9 km/h 23.3 km/h 68 % 0 mm
13:42 -6.2 °C -9.5 °C 34669.3 hPa SSW 10.3 km/h 23.3 km/h 69 % 0 mm
13:52 -6.2 °C -9.3 °C 34669.3 hPa SW 5.1 km/h 23.3 km/h 71 % 0 mm
14:02 -6 °C -9.3 °C 34669.3 hPa SSE 7.7 km/h 20.8 km/h 69 % 0 mm
14:12 -5.9 °C -9.2 °C 34669.3 hPa SSW 10.3 km/h 20.8 km/h 69 % 0 mm
14:22 -6 °C -9.4 °C 34669.3 hPa SW 7.7 km/h 20.8 km/h 68 % 0 mm
14:32 -5.9 °C -9.2 °C 34669.3 hPa SW 10.3 km/h 20.8 km/h 69 % 0 mm
14:42 -5.8 °C -9.3 °C 34669.3 hPa SW 5.1 km/h 25.9 km/h 67 % 0 mm
14:47 -5.7 °C -9.3 °C 34669.3 hPa SSW 10.3 km/h 25.9 km/h 67 % 0 mm
14:52 -5.6 °C -9.2 °C 34669.3 hPa SSW 5.1 km/h 23.3 km/h 67 % 0 mm
14:57 -5.5 °C -8.9 °C 34669.3 hPa WSW 7.7 km/h 23.3 km/h 68 % 0 mm
15:02 -5.3 °C -9.1 °C 34669.3 hPa South 7.7 km/h 20.8 km/h 66 % 0 mm
15:12 -5.2 °C -8.7 °C 34669.3 hPa SSW 10.3 km/h 20.8 km/h 67 % 0 mm
15:17 -5.2 °C -9.2 °C 34669.3 hPa WSW 18.2 km/h 20.8 km/h 64 % 0 mm
15:22 -5.2 °C -9.3 °C 34669.3 hPa SSW 10.3 km/h 25.9 km/h 63 % 0 mm
15:27 -5.2 °C -9.5 °C 34669.3 hPa SW 7.7 km/h 25.9 km/h 62 % 0 mm
15:32 -5.3 °C -9.4 °C 34669.3 hPa SSW 18.2 km/h 25.9 km/h 63 % 0 mm
15:42 -5.2 °C -9.2 °C 34669.3 hPa South 2.6 km/h 23.3 km/h 64 % 0 mm
15:52 -5.1 °C -9.1 °C 34659.1 hPa SW 7.7 km/h 23.3 km/h 64 % 0 mm
15:57 -5.1 °C -9.2 °C 34659.1 hPa South 7.7 km/h 15.6 km/h 63 % 0 mm
16:02 -5.1 °C -9.2 °C 34659.1 hPa SW 5.1 km/h 15.6 km/h 63 % 0 mm
16:07 -5.1 °C -9.1 °C 34659.1 hPa SSE 10.3 km/h 20.8 km/h 64 % 0 mm
16:12 -5.1 °C -9.1 °C 34659.1 hPa SSW 12.9 km/h 20.8 km/h 64 % 0 mm
16:17 -5.1 °C -9.2 °C 34659.1 hPa Calm   20.8 km/h 63 % 0 mm
16:22 -5.1 °C -9.2 °C 34659.1 hPa WSW 5.1 km/h 20.8 km/h 63 % 0 mm
16:27 -5.1 °C -9.2 °C 34659.1 hPa WSW 10.3 km/h 20.8 km/h 63 % 0 mm
16:32 -5.1 °C -9.2 °C 34659.1 hPa SE 5.1 km/h 20.8 km/h 63 % 0 mm
16:37 -4.9 °C -9.1 °C 34659.1 hPa SSW 20.8 km/h 25.9 km/h 63 % 0 mm
16:42 -4.9 °C -9.1 °C 34645.6 hPa WSW 7.7 km/h 25.9 km/h 63 % 0 mm
16:47 -4.9 °C -9.3 °C 34645.6 hPa SW 15.6 km/h 25.9 km/h 61 % 0 mm
16:52 -5.1 °C -9.4 °C 34645.6 hPa SW 10.3 km/h 25.9 km/h 61 % 0 mm
17:02 -5.1 °C -9.2 °C 34645.6 hPa West 7.7 km/h 25.9 km/h 63 % 0 mm
17:12 -5 °C -9 °C 34659.1 hPa SW 2.6 km/h 25.9 km/h 64 % 0 mm
17:17 -4.9 °C -9.1 °C 34645.6 hPa WSW 2.6 km/h 20.8 km/h 63 % 0 mm
17:22 -4.8 °C -8.9 °C 34645.6 hPa WSW 7.7 km/h 12.9 km/h 63 % 0 mm
17:27 -4.8 °C -8.9 °C 34645.6 hPa SW 10.3 km/h 10.3 km/h 63 % 0 mm
17:32 -4.9 °C -9.2 °C 34645.6 hPa SW 5.1 km/h 15.6 km/h 62 % 0 mm
17:42 -4.7 °C -9.2 °C 34659.1 hPa SSW 2.6 km/h 18.2 km/h 61 % 0 mm
17:47 -4.7 °C -9 °C 34659.1 hPa Calm   15.6 km/h 62 % 0 mm
17:57 -4.6 °C -9 °C 34659.1 hPa WSW 7.7 km/h 10.3 km/h 61 % 0 mm
18:02 -4.6 °C -9.1 °C 34659.1 hPa SSW 2.6 km/h 10.3 km/h 61 % 0 mm
18:07 -4.6 °C -9.2 °C 34659.1 hPa SSW 2.6 km/h 10.3 km/h 60 % 0 mm
18:17 -4.8 °C -9.2 °C 34659.1 hPa SW 5.1 km/h 12.9 km/h 61 % 0 mm
18:22 -4.9 °C -9.3 °C 34659.1 hPa WSW 7.7 km/h 12.9 km/h 61 % 0 mm
18:27 -5.1 °C -9.1 °C 34659.1 hPa SW 2.6 km/h 12.9 km/h 64 % 0 mm
18:32 -5.1 °C -8.9 °C 34645.6 hPa Calm   10.3 km/h 65 % 0 mm
18:37 -5.2 °C -8.9 °C 34645.6 hPa WSW 2.6 km/h 10.3 km/h 66 % 0 mm
18:42 -5.3 °C -9.2 °C 34645.6 hPa SW 5.1 km/h 5.1 km/h 65 % 0 mm
18:52 -5.5 °C -9.1 °C 34659.1 hPa Calm   7.7 km/h 67 % 0 mm
18:57 -5.6 °C -9.1 °C 34645.6 hPa Calm   5.1 km/h 68 % 0 mm
19:02 -5.7 °C -9.2 °C 34659.1 hPa Calm   5.1 km/h 68 % 0 mm
19:12 -5.9 °C -9 °C 34659.1 hPa Calm   2.6 km/h 71 % 0 mm
19:17 -6.1 °C -9.1 °C 34659.1 hPa Calm     71 % 0 mm
19:22 -6.2 °C -9 °C 34659.1 hPa Calm     73 % 0 mm
19:32 -6.6 °C -9.1 °C 34659.1 hPa WNW 2.6 km/h   76 % 0 mm
19:37 -6.8 °C -9.3 °C 34659.1 hPa Calm   2.6 km/h 76 % 0 mm
19:42 -6.9 °C -9.2 °C 34659.1 hPa Calm   2.6 km/h 77 % 0 mm
19:47 -7.1 °C -9.2 °C 34659.1 hPa WNW 2.6 km/h 2.6 km/h 78 % 0 mm
19:52 -7.1 °C -9.1 °C 34659.1 hPa Calm   2.6 km/h 80 % 0 mm
19:57 -7.2 °C -9 °C 34659.1 hPa Calm   2.6 km/h 81 % 0 mm
20:02 -7.2 °C -9.1 °C 34659.1 hPa Calm   2.6 km/h 81 % 0 mm
20:12 -7.3 °C -9.1 °C 34659.1 hPa Calm   2.6 km/h 81 % 0 mm
20:17 -7.3 °C -9.1 °C 34659.1 hPa Calm   2.6 km/h 82 % 0 mm
20:22 -7.4 °C -9 °C 34659.1 hPa Calm   2.6 km/h 84 % 0 mm
20:27 -7.6 °C -9.1 °C 34659.1 hPa Calm   2.6 km/h 84 % 0 mm
20:32 -7.7 °C -9.2 °C 34659.1 hPa Calm   2.6 km/h 84 % 0 mm
20:42 -7.7 °C -9.1 °C 34659.1 hPa Calm   2.6 km/h 85 % 0 mm
20:52 -7.8 °C -9.2 °C 34669.3 hPa North 2.6 km/h 5.1 km/h 85 % 0 mm
20:57 -7.8 °C -9.2 °C 34669.3 hPa Calm   5.1 km/h 86 % 0 mm
21:02 -7.9 °C -9.2 °C 34669.3 hPa Calm   5.1 km/h 86 % 0 mm
21:12 -8 °C -9.2 °C 34669.3 hPa Calm   2.6 km/h 87 % 0 mm
21:17 -8 °C -9.3 °C 34669.3 hPa Calm   2.6 km/h 86 % 0 mm
21:22 -7.9 °C -9.3 °C 34669.3 hPa Calm   2.6 km/h 86 % 0 mm
21:32 -8.2 °C -9.4 °C 34669.3 hPa Calm   5.1 km/h 87 % 0 mm
21:37 -8.2 °C -9.4 °C 34669.3 hPa Calm   5.1 km/h 87 % 0 mm
21:42 -8.2 °C -9.3 °C 34669.3 hPa NNW 2.6 km/h 5.1 km/h 88 % 0 mm
21:47 -8.2 °C -9.3 °C 34669.3 hPa Calm   2.6 km/h 88 % 0 mm
21:52 -8.3 °C -9.4 °C 34669.3 hPa Calm   2.6 km/h 88 % 0 mm
22:02 -8.4 °C -9.4 °C 34669.3 hPa Calm   2.6 km/h 89 % 0 mm
22:12 -8.4 °C -9.4 °C 34669.3 hPa North 2.6 km/h 2.6 km/h 90 % 0 mm
22:17 -8.5 °C -9.4 °C 34669.3 hPa Calm   2.6 km/h 90 % 0 mm
22:22 -8.6 °C -9.4 °C 34669.3 hPa Calm   5.1 km/h 90 % 0 mm
22:32 -8.6 °C -9.4 °C 34669.3 hPa North 2.6 km/h 5.1 km/h 91 % 0 mm
22:37 -8.6 °C -9.5 °C 34669.3 hPa Calm   5.1 km/h 90 % 0 mm
22:42 -8.7 °C -9.6 °C 34669.3 hPa Calm   5.1 km/h 90 % 0 mm
22:47 -8.8 °C -9.7 °C 34669.3 hPa Calm   5.1 km/h 90 % 0 mm
22:52 -8.8 °C -9.7 °C 34669.3 hPa Calm   2.6 km/h 91 % 0 mm
22:57 -8.8 °C -9.7 °C 34669.3 hPa Calm     91 % 0 mm
23:02 -8.9 °C -9.8 °C 34669.3 hPa Calm     91 % 0 mm
23:07 -9.1 °C -9.9 °C 34669.3 hPa Calm     91 % 0 mm
23:12 -9.1 °C -9.8 °C 34669.3 hPa Calm     92 % 0 mm
23:17 -9.1 °C -9.7 °C 34669.3 hPa WNW 2.6 km/h 2.6 km/h 93 % 0 mm
23:22 -9.1 °C -9.7 °C 34669.3 hPa NW 2.6 km/h 2.6 km/h 93 % 0 mm
23:27 -9.1 °C -9.7 °C 34669.3 hPa North 2.6 km/h 2.6 km/h 93 % 0 mm
23:32 -9.1 °C -9.7 °C 34669.3 hPa Calm   5.1 km/h 93 % 0 mm
23:37 -9.1 °C -9.7 °C 34669.3 hPa NNE 2.6 km/h 5.1 km/h 93 % 0 mm
23:42 -9.2 °C -9.8 °C 34669.3 hPa North 2.6 km/h 5.1 km/h 93 % 0 mm
23:52 -9.3 °C -9.9 °C 34659.1 hPa Calm   5.1 km/h 93 % 0 mm
23:57 -9.3 °C -9.9 °C 34659.1 hPa Calm   5.1 km/h 93 % 0 mm
Meteo18
Compliments of Weather Underground - 4 mb

Script developed by  Jim McMurry - jmcmurry@mwt.net Adapted for the template by  Wim van der Kuil - Leuven-Template.eu

You find our weather info also at:

European Weather Network

Weather Underground

Equipment we use:

Weather-station
Davis Vue

Weather-program
Meteobridge

Weather-server
Raspberry PI 2 B+

Provider
1 and 1

Davis Vue

Meteobridge

Raspberry PI 2 B+

1 and 1